Baltimore, Maryland
Traffic Map
Current Weather Conditions
Baltimore, Maryland
Broken Clouds
Broken Clouds
22°
Feels Like: 22°
Wind Chill: 22° Ceiling: 11000
Heat Index: 22° Visibility: 10mi
Dew Point: 14° Wind: 6mph
Humidity: 63% Direction: 250° (WSW)
Pressure: 29.99in Gusts: 0mph
Raw Report DataKBWI 270454Z 25005KT 10SM SCT075 SCT090 BKN110 22/14 A2999 RMK AO2 SLP154 T02170144 402780144
Traffic Incident Summary
Active as of:
Severity:
Category:
InformationThere was an issue retrieving the traffic information for this location. Please try a different location or try again shortly.
Advertisements
Track Severe Weather on mobile